createdAt,value
2018-06-14T00:00:47.615Z,15.20
2018-06-14T00:01:52.601Z,15.22
2018-06-14T00:02:57.547Z,15.29
2018-06-14T00:04:02.458Z,15.41
2018-06-14T00:05:07.409Z,15.35
2018-06-14T00:06:12.338Z,15.25
2018-06-14T00:07:17.856Z,15.25
2018-06-14T00:08:23.043Z,15.14
2018-06-14T00:09:27.675Z,15.10
2018-06-14T00:10:32.637Z,15.09
2018-06-14T00:11:37.299Z,15.11
2018-06-14T00:12:42.300Z,15.08
2018-06-14T00:13:47.199Z,15.07
2018-06-14T00:14:52.149Z,15.10
2018-06-14T00:15:57.084Z,15.11
2018-06-14T00:17:04.994Z,15.13
2018-06-14T00:18:09.904Z,15.15
2018-06-14T00:19:16.684Z,15.29
2018-06-14T00:20:21.631Z,15.32
2018-06-14T00:21:26.725Z,15.28
2018-06-14T00:22:32.239Z,15.26
2018-06-14T00:23:37.199Z,15.23
2018-06-14T00:24:42.103Z,15.17
2018-06-14T00:25:47.042Z,15.19
2018-06-14T00:26:51.996Z,15.32
2018-06-14T00:27:56.935Z,15.34
2018-06-14T00:29:01.860Z,15.22
2018-06-14T00:30:06.823Z,15.28
2018-06-14T00:31:11.772Z,15.28
2018-06-14T00:32:16.532Z,15.24
2018-06-14T00:33:21.711Z,15.19
2018-06-14T00:34:27.619Z,15.17
2018-06-14T00:35:32.531Z,15.18
2018-06-14T00:36:37.428Z,15.15
2018-06-14T00:37:42.390Z,15.17
2018-06-14T00:38:47.048Z,15.25
2018-06-14T00:39:51.993Z,15.20
2018-06-14T00:40:56.933Z,15.23
2018-06-14T00:42:01.830Z,15.23
2018-06-14T00:43:06.745Z,15.29
2018-06-14T00:44:11.655Z,15.22
2018-06-14T00:45:16.575Z,15.22
2018-06-14T00:46:21.899Z,15.18
2018-06-14T00:47:26.827Z,15.18
2018-06-14T00:48:31.752Z,15.24
2018-06-14T00:49:36.367Z,15.17
2018-06-14T00:50:40.941Z,15.14
2018-06-14T00:51:45.880Z,15.10
2018-06-14T00:52:50.561Z,15.17
2018-06-14T00:53:55.235Z,15.22
2018-06-14T00:55:00.172Z,15.17
2018-06-14T00:56:05.132Z,15.27
2018-06-14T00:57:26.530Z,15.30
2018-06-14T00:58:31.486Z,15.20
2018-06-14T00:59:36.381Z,15.34
2018-06-14T01:00:41.295Z,15.25
2018-06-14T01:01:45.021Z,15.24
2018-06-14T01:02:48.997Z,15.26
2018-06-14T01:03:53.916Z,15.20
2018-06-14T01:04:58.834Z,15.12
2018-06-14T01:06:03.992Z,15.10
2018-06-14T01:07:08.930Z,15.21
2018-06-14T01:08:13.854Z,15.23
2018-06-14T01:09:18.490Z,15.20
2018-06-14T01:10:23.447Z,15.13
2018-06-14T01:11:28.378Z,15.13
2018-06-14T01:12:33.350Z,15.12
2018-06-14T01:13:38.328Z,15.12
2018-06-14T01:14:43.245Z,15.07
2018-06-14T01:15:53.546Z,15.20
2018-06-14T01:16:58.479Z,15.27
2018-06-14T01:18:03.408Z,15.23
2018-06-14T01:19:08.342Z,15.20
2018-06-14T01:20:13.292Z,15.35
2018-06-14T01:21:18.229Z,15.23
2018-06-14T01:22:23.210Z,15.13
2018-06-14T01:23:27.907Z,15.12
2018-06-14T01:24:32.842Z,15.19
2018-06-14T01:25:37.743Z,15.15
2018-06-14T01:26:42.464Z,15.13
2018-06-14T01:27:47.384Z,15.04
2018-06-14T01:28:52.369Z,14.96
2018-06-14T01:29:57.307Z,15.02
2018-06-14T01:31:02.221Z,15.10
2018-06-14T01:32:06.867Z,15.26
2018-06-14T01:33:11.878Z,15.17
2018-06-14T01:34:16.802Z,15.03
2018-06-14T01:35:21.731Z,15.06
2018-06-14T01:36:26.660Z,15.13
2018-06-14T01:37:30.979Z,15.25
2018-06-14T01:38:35.663Z,15.18
2018-06-14T01:39:40.573Z,15.16
2018-06-14T01:40:45.776Z,15.14
2018-06-14T01:41:50.960Z,15.30
2018-06-14T01:42:55.899Z,15.15
2018-06-14T01:44:00.813Z,15.19
2018-06-14T01:45:05.380Z,15.26
2018-06-14T01:46:14.504Z,15.29
2018-06-14T01:47:19.392Z,15.20
2018-06-14T01:48:24.339Z,15.27
2018-06-14T01:49:29.231Z,15.25
2018-06-14T01:50:33.811Z,15.16
2018-06-14T01:51:38.760Z,15.09
2018-06-14T01:52:43.756Z,15.18
2018-06-14T01:53:48.695Z,15.19
2018-06-14T01:54:53.666Z,15.09
2018-06-14T01:55:58.586Z,14.98
2018-06-14T01:57:03.229Z,14.90
2018-06-14T01:58:07.817Z,14.88
2018-06-14T01:59:12.782Z,15.02
2018-06-14T02:00:17.725Z,14.94
2018-06-14T02:01:22.707Z,14.89
2018-06-14T02:02:27.628Z,14.90
2018-06-14T02:03:32.597Z,15.02
2018-06-14T02:04:37.502Z,15.02
2018-06-14T02:05:42.406Z,15.09
2018-06-14T02:06:47.656Z,15.06
2018-06-14T02:07:53.431Z,14.94
2018-06-14T02:08:58.390Z,14.89
2018-06-14T02:10:02.999Z,14.88
2018-06-14T02:11:07.709Z,14.95
2018-06-14T02:12:12.429Z,14.90
2018-06-14T02:13:17.011Z,14.82
2018-06-14T02:14:21.966Z,14.98
2018-06-14T02:15:26.828Z,15.02
2018-06-14T02:16:31.738Z,14.95
2018-06-14T02:17:36.322Z,14.90
2018-06-14T02:18:41.264Z,14.90
2018-06-14T02:19:46.211Z,14.80
2018-06-14T02:20:50.871Z,14.83
2018-06-14T02:21:55.838Z,14.99
2018-06-14T02:23:00.493Z,15.08
2018-06-14T02:24:05.446Z,15.09
2018-06-14T02:25:10.374Z,15.09
2018-06-14T02:26:15.324Z,15.02
2018-06-14T02:27:20.245Z,15.05
2018-06-14T02:28:25.167Z,15.10
2018-06-14T02:29:30.110Z,14.98
2018-06-14T02:30:35.080Z,14.90
2018-06-14T02:31:40.009Z,14.81
2018-06-14T02:32:45.773Z,14.79
2018-06-14T02:33:50.889Z,14.63
2018-06-14T02:34:55.816Z,14.60
2018-06-14T02:36:00.753Z,14.55
2018-06-14T02:37:05.452Z,14.44
2018-06-14T02:38:10.387Z,14.47
2018-06-14T02:39:15.349Z,14.45
2018-06-14T02:40:20.467Z,14.57
2018-06-14T02:41:25.417Z,14.65
2018-06-14T02:42:30.338Z,14.75
2018-06-14T02:43:35.269Z,14.63
2018-06-14T02:44:39.993Z,14.48
2018-06-14T02:45:45.042Z,14.49
2018-06-14T02:46:49.706Z,14.63
2018-06-14T02:47:54.823Z,14.64
2018-06-14T02:48:59.720Z,14.55
2018-06-14T02:50:04.661Z,14.66
2018-06-14T02:51:09.569Z,14.74
2018-06-14T02:52:14.550Z,14.69
2018-06-14T02:53:19.559Z,14.75
2018-06-14T02:54:24.564Z,14.82
2018-06-14T02:55:29.516Z,14.89
2018-06-14T02:56:34.423Z,14.91
2018-06-14T02:57:43.230Z,14.75
2018-06-14T02:58:48.039Z,14.59
2018-06-14T02:59:53.876Z,14.64
2018-06-14T03:00:58.799Z,14.59
2018-06-14T03:02:03.520Z,14.52
2018-06-14T03:03:08.774Z,14.69
2018-06-14T03:04:13.700Z,14.65
2018-06-14T03:05:18.647Z,14.69
2018-06-14T03:06:23.712Z,14.80
2018-06-14T03:07:28.427Z,14.90
2018-06-14T03:08:33.352Z,14.77
2018-06-14T03:09:38.321Z,14.78
2018-06-14T03:10:43.275Z,14.69
2018-06-14T03:11:47.964Z,14.61
2018-06-14T03:12:52.893Z,14.54
2018-06-14T03:13:57.568Z,14.40
2018-06-14T03:15:02.967Z,14.38
2018-06-14T03:16:07.916Z,14.44
2018-06-14T03:17:12.859Z,14.58
2018-06-14T03:18:17.764Z,14.63
2018-06-14T03:19:22.384Z,14.50
2018-06-14T03:20:27.093Z,14.52
2018-06-14T03:21:32.028Z,14.57
2018-06-14T03:22:36.718Z,14.61
2018-06-14T03:23:41.668Z,14.59
2018-06-14T03:24:47.258Z,14.54
2018-06-14T03:25:53.854Z,14.46
2018-06-14T03:26:59.657Z,14.40
2018-06-14T03:28:05.097Z,14.44
2018-06-14T03:29:10.036Z,14.42
2018-06-14T03:30:14.758Z,14.44
2018-06-14T03:31:19.700Z,14.51
2018-06-14T03:32:24.403Z,14.43
2018-06-14T03:33:29.362Z,14.33
2018-06-14T03:34:34.299Z,14.35
2018-06-14T03:35:39.259Z,14.34
2018-06-14T03:36:43.935Z,14.50
2018-06-14T03:37:48.841Z,14.65
2018-06-14T03:38:53.578Z,14.56
2018-06-14T03:39:58.691Z,14.52
2018-06-14T03:41:03.250Z,14.49
2018-06-14T03:42:08.190Z,14.53
2018-06-14T03:43:12.597Z,14.68
2018-06-14T03:44:17.580Z,14.48
2018-06-14T03:45:22.445Z,14.60
2018-06-14T03:46:31.083Z,14.63
2018-06-14T03:47:35.985Z,14.55
2018-06-14T03:48:40.663Z,14.48
2018-06-14T03:49:45.564Z,14.29
2018-06-14T03:50:50.238Z,14.18
2018-06-14T03:51:55.286Z,14.19
2018-06-14T03:53:00.243Z,14.07
2018-06-14T03:54:05.227Z,14.13
2018-06-14T03:55:10.429Z,14.14
2018-06-14T03:56:15.599Z,14.21
2018-06-14T03:57:20.594Z,14.07
2018-06-14T03:58:25.556Z,14.06
2018-06-14T03:59:30.694Z,14.12
2018-06-14T04:00:35.626Z,13.99
2018-06-14T04:01:40.556Z,14.07
2018-06-14T04:02:45.194Z,14.06
2018-06-14T04:03:50.166Z,13.97
2018-06-14T04:04:54.979Z,13.91
2018-06-14T04:05:59.953Z,14.03
2018-06-14T04:07:04.904Z,14.23
2018-06-14T04:08:09.828Z,14.18
2018-06-14T04:09:14.767Z,14.24
2018-06-14T04:10:19.479Z,14.33
2018-06-14T04:11:24.639Z,14.28
2018-06-14T04:12:29.345Z,14.31
2018-06-14T04:13:34.268Z,14.38
2018-06-14T04:14:38.976Z,14.46
2018-06-14T04:15:43.939Z,14.47
2018-06-14T04:16:48.894Z,14.35
2018-06-14T04:17:53.795Z,14.27
2018-06-14T04:18:58.413Z,14.34
2018-06-14T04:20:03.328Z,14.27
2018-06-14T04:21:08.257Z,14.15
2018-06-14T04:22:13.182Z,14.24
2018-06-14T04:23:17.843Z,14.26
2018-06-14T04:24:22.807Z,14.19
2018-06-14T04:25:27.813Z,14.26
2018-06-14T04:26:32.507Z,14.36
2018-06-14T04:27:37.462Z,14.43
2018-06-14T04:28:42.386Z,14.57
2018-06-14T04:29:47.383Z,14.41
2018-06-14T04:30:52.314Z,14.32
2018-06-14T04:31:57.253Z,14.27
2018-06-14T04:33:02.175Z,14.38
2018-06-14T04:34:07.089Z,14.38
2018-06-14T04:35:12.035Z,14.38
2018-06-14T04:36:16.958Z,14.53
2018-06-14T04:37:21.845Z,14.44
2018-06-14T04:38:26.806Z,14.46
2018-06-14T04:39:31.463Z,14.51
2018-06-14T04:40:36.389Z,14.65
2018-06-14T04:41:41.374Z,14.39
2018-06-14T04:42:47.087Z,14.35
2018-06-14T04:43:51.974Z,14.41
2018-06-14T04:44:56.923Z,14.55
2018-06-14T04:46:01.838Z,14.49
2018-06-14T04:47:06.793Z,14.56
2018-06-14T04:48:11.468Z,14.48
2018-06-14T04:49:16.390Z,14.42
2018-06-14T04:50:21.322Z,14.39
2018-06-14T04:51:26.278Z,14.37
2018-06-14T04:52:30.706Z,14.39
2018-06-14T04:53:35.476Z,14.37
2018-06-14T04:54:40.569Z,14.35
2018-06-14T04:55:45.206Z,14.41
2018-06-14T04:56:50.192Z,14.44
2018-06-14T04:57:55.129Z,14.50
2018-06-14T04:59:00.130Z,14.54
2018-06-14T05:00:04.815Z,14.52
2018-06-14T05:01:09.846Z,14.51
2018-06-14T05:02:14.581Z,14.52
2018-06-14T05:03:19.514Z,14.67
2018-06-14T05:04:24.519Z,14.64
2018-06-14T05:05:29.462Z,14.63
2018-06-14T05:06:34.644Z,14.63
2018-06-14T05:07:39.903Z,14.55
2018-06-14T05:08:45.324Z,14.55
2018-06-14T05:09:50.263Z,14.66
2018-06-14T05:10:55.265Z,14.73
2018-06-14T05:12:00.191Z,14.73
2018-06-14T05:13:04.465Z,14.85
2018-06-14T05:14:09.124Z,14.76
2018-06-14T05:15:14.072Z,14.80
2018-06-14T05:16:18.985Z,14.73
2018-06-14T05:17:23.939Z,14.71
2018-06-14T05:18:28.883Z,14.69
2018-06-14T05:19:33.529Z,14.66
2018-06-14T05:20:38.455Z,14.64
2018-06-14T05:21:43.396Z,14.66
2018-06-14T05:22:48.344Z,14.82
2018-06-14T05:23:53.288Z,14.77
2018-06-14T05:24:57.926Z,14.76
2018-06-14T05:26:02.858Z,14.73
2018-06-14T05:27:07.887Z,14.69
2018-06-14T05:28:12.817Z,14.71
2018-06-14T05:29:17.726Z,14.74
2018-06-14T05:30:22.678Z,14.74
2018-06-14T05:31:27.606Z,14.79
2018-06-14T05:32:32.600Z,14.82
2018-06-14T05:33:37.907Z,14.84
2018-06-14T05:34:43.317Z,14.88
2018-06-14T05:35:48.223Z,14.88
2018-06-14T05:36:53.143Z,14.93
2018-06-14T05:37:58.066Z,14.93
2018-06-14T05:39:03.059Z,14.95
2018-06-14T05:40:07.995Z,14.95
2018-06-14T05:41:12.933Z,14.95
2018-06-14T05:42:17.871Z,14.92
2018-06-14T05:43:23.034Z,15.05
2018-06-14T05:44:27.951Z,15.01
2018-06-14T05:45:33.009Z,15.00
2018-06-14T05:46:37.932Z,15.01
2018-06-14T05:47:42.899Z,15.08
2018-06-14T05:48:48.007Z,15.10
2018-06-14T05:49:52.903Z,15.32
2018-06-14T05:50:57.818Z,15.52
2018-06-14T05:52:03.173Z,15.62
2018-06-14T05:53:08.095Z,15.59
2018-06-14T05:54:13.119Z,15.18
2018-06-14T05:55:18.040Z,15.12
2018-06-14T05:56:23.017Z,15.13
2018-06-14T05:57:28.489Z,15.16
2018-06-14T05:58:33.466Z,15.21
2018-06-14T05:59:38.420Z,15.21
2018-06-14T06:00:43.377Z,15.18
2018-06-14T06:01:48.323Z,15.04
2018-06-14T06:02:53.347Z,15.10
2018-06-14T06:03:58.452Z,15.12
2018-06-14T06:05:03.439Z,15.10
2018-06-14T06:06:08.380Z,15.18
2018-06-14T06:07:13.340Z,15.18
2018-06-14T06:08:18.306Z,15.08
2018-06-14T06:09:23.543Z,15.09
2018-06-14T06:10:28.661Z,15.05
2018-06-14T06:11:33.617Z,15.10
2018-06-14T06:12:38.558Z,15.28
2018-06-14T06:13:43.175Z,15.44
2018-06-14T06:14:48.119Z,15.62
2018-06-14T06:15:53.070Z,15.67
2018-06-14T06:16:58.014Z,15.64
2018-06-14T06:18:02.983Z,15.66
2018-06-14T06:19:07.888Z,15.77
2018-06-14T06:20:12.783Z,15.85
2018-06-14T06:21:17.825Z,15.70
2018-06-14T06:22:23.056Z,15.83
2018-06-14T06:23:28.045Z,16.01
2018-06-14T06:24:33.149Z,16.09
2018-06-14T06:25:38.089Z,15.90
2018-06-14T06:26:42.995Z,15.54
2018-06-14T06:27:47.946Z,15.74
2018-06-14T06:28:52.844Z,15.82
2018-06-14T06:29:57.780Z,15.83
2018-06-14T06:31:02.660Z,15.90
2018-06-14T06:32:07.286Z,15.96
2018-06-14T06:33:12.621Z,15.78
2018-06-14T06:34:17.734Z,15.91
2018-06-14T06:35:22.419Z,15.88
2018-06-14T06:36:27.183Z,16.01
2018-06-14T06:37:32.076Z,16.18
2018-06-14T06:38:37.060Z,16.28
2018-06-14T06:39:41.948Z,16.18
2018-06-14T06:40:46.910Z,16.05
2018-06-14T06:41:51.890Z,16.04
2018-06-14T06:42:56.857Z,16.08
2018-06-14T06:44:01.739Z,16.19
2018-06-14T06:45:06.396Z,16.24
2018-06-14T06:46:11.530Z,16.29
2018-06-14T06:47:16.476Z,16.26
2018-06-14T06:48:22.483Z,16.13
2018-06-14T06:49:27.430Z,16.25
2018-06-14T06:50:32.368Z,16.31
2018-06-14T06:51:37.367Z,16.37
2018-06-14T06:52:42.314Z,16.56
2018-06-14T06:53:47.247Z,16.67
2018-06-14T06:54:52.183Z,16.65
2018-06-14T06:55:57.107Z,16.56
2018-06-14T06:57:02.107Z,16.76
2018-06-14T06:58:07.083Z,16.89
2018-06-14T06:59:12.068Z,16.98
2018-06-14T07:00:16.975Z,17.10
2018-06-14T07:01:21.919Z,17.09
2018-06-14T07:02:26.895Z,16.90
2018-06-14T07:03:31.858Z,16.68
2018-06-14T07:04:36.774Z,16.86
2018-06-14T07:05:41.738Z,16.58
2018-06-14T07:06:46.646Z,16.38
2018-06-14T07:07:51.577Z,16.60
2018-06-14T07:08:56.303Z,16.46
2018-06-14T07:10:01.220Z,16.42
2018-06-14T07:11:06.123Z,16.51
2018-06-14T07:12:11.071Z,16.57
2018-06-14T07:13:16.755Z,16.66
2018-06-14T07:14:21.851Z,16.72
2018-06-14T07:15:26.859Z,16.65
2018-06-14T07:16:31.904Z,16.70
2018-06-14T07:17:36.810Z,16.74
2018-06-14T07:18:41.761Z,16.62
2018-06-14T07:19:46.345Z,16.79
2018-06-14T07:20:51.279Z,16.95
2018-06-14T07:21:56.313Z,17.06
2018-06-14T07:23:01.372Z,17.05
2018-06-14T07:24:06.351Z,17.19
2018-06-14T07:25:11.016Z,17.29
2018-06-14T07:26:15.624Z,17.39
2018-06-14T07:27:20.632Z,17.52
2018-06-14T07:28:25.587Z,17.50
2018-06-14T07:29:30.518Z,17.50
2018-06-14T07:30:35.216Z,17.26
2018-06-14T07:31:40.136Z,17.40
2018-06-14T07:32:45.054Z,17.13
2018-06-14T07:33:50.064Z,17.06
2018-06-14T07:34:54.953Z,16.90
2018-06-14T07:35:59.890Z,17.15
2018-06-14T07:37:06.489Z,16.94
2018-06-14T07:38:12.553Z,16.85
2018-06-14T07:39:18.568Z,16.96
2018-06-14T07:40:24.517Z,17.29
2018-06-14T07:41:29.398Z,17.49
2018-06-14T07:42:34.830Z,17.63
2018-06-14T07:43:41.125Z,17.38
2018-06-14T07:44:47.909Z,17.31
2018-06-14T07:45:52.612Z,17.55
2018-06-14T07:46:57.555Z,17.63
2018-06-14T07:48:02.208Z,17.35
2018-06-14T07:49:07.152Z,17.20
2018-06-14T07:50:11.771Z,17.18
2018-06-14T07:51:16.661Z,17.23
2018-06-14T07:52:21.621Z,17.11
2018-06-14T07:53:26.579Z,17.17
2018-06-14T07:54:31.587Z,17.36
2018-06-14T07:55:36.508Z,17.52
2018-06-14T07:56:41.409Z,17.62
2018-06-14T07:57:46.330Z,17.70
2018-06-14T07:58:51.261Z,17.84
2018-06-14T07:59:56.253Z,17.95
2018-06-14T08:01:01.343Z,17.76
2018-06-14T08:02:05.931Z,17.34
2018-06-14T08:03:10.830Z,17.22
2018-06-14T08:04:15.781Z,17.36
2018-06-14T08:05:20.942Z,17.21
2018-06-14T08:06:25.999Z,17.42
2018-06-14T08:07:31.080Z,17.53
2018-06-14T08:08:36.007Z,17.77
2018-06-14T08:09:40.926Z,18.08
2018-06-14T08:10:45.857Z,18.02
2018-06-14T08:11:50.774Z,18.10
2018-06-14T08:12:55.723Z,18.30
2018-06-14T08:14:00.663Z,18.36
2018-06-14T08:15:05.610Z,18.27
2018-06-14T08:16:10.708Z,18.23
2018-06-14T08:17:15.840Z,18.21
2018-06-14T08:18:20.795Z,18.30
2018-06-14T08:19:25.778Z,18.30
2018-06-14T08:20:30.478Z,18.21
2018-06-14T08:21:35.020Z,17.78
2018-06-14T08:22:40.646Z,17.95
2018-06-14T08:23:45.607Z,18.06
2018-06-14T08:24:50.557Z,18.19
2018-06-14T08:25:55.441Z,18.35
2018-06-14T08:27:00.375Z,18.49
2018-06-14T08:28:05.320Z,18.57
2018-06-14T08:29:10.287Z,18.53
2018-06-14T08:30:15.226Z,18.47
2018-06-14T08:31:20.653Z,18.33
2018-06-14T08:32:25.622Z,18.28
2018-06-14T08:33:30.524Z,18.23
2018-06-14T08:34:35.488Z,18.18
2018-06-14T08:35:40.453Z,18.30
2018-06-14T08:36:45.450Z,18.44
2018-06-14T08:37:50.395Z,18.55
2018-06-14T08:38:55.284Z,18.74
2018-06-14T08:40:00.224Z,18.87
2018-06-14T08:41:05.124Z,18.96
2018-06-14T08:42:10.055Z,18.90
2018-06-14T08:43:14.627Z,19.02
2018-06-14T08:44:19.410Z,18.90
2018-06-14T08:45:24.108Z,18.99
2018-06-14T08:46:29.049Z,19.14
2018-06-14T08:47:33.718Z,19.21
2018-06-14T08:48:38.889Z,18.72
2018-06-14T08:49:43.939Z,18.80
2018-06-14T08:50:48.875Z,19.02
2018-06-14T08:51:53.816Z,19.13
2018-06-14T08:52:58.781Z,19.23
2018-06-14T08:54:03.691Z,19.22
2018-06-14T08:55:08.661Z,19.07
2018-06-14T08:56:13.601Z,19.39
2018-06-14T08:57:19.271Z,19.44
2018-06-14T08:58:24.222Z,19.64
2018-06-14T08:59:29.196Z,19.76
2018-06-14T09:00:34.134Z,19.96
2018-06-14T09:01:39.384Z,20.15
2018-06-14T09:02:44.500Z,20.08
2018-06-14T09:03:49.446Z,20.00
2018-06-14T09:04:54.442Z,20.03
2018-06-14T09:05:59.441Z,19.91
2018-06-14T09:07:04.343Z,20.09
2018-06-14T09:08:09.329Z,20.11
2018-06-14T09:09:14.286Z,20.00
2018-06-14T09:10:19.725Z,20.14
2018-06-14T09:11:24.683Z,20.28
2018-06-14T09:12:29.652Z,20.22
2018-06-14T09:13:34.547Z,20.23
2018-06-14T09:14:39.203Z,20.16
2018-06-14T09:15:44.538Z,19.85
2018-06-14T09:16:49.206Z,19.34
2018-06-14T09:17:54.129Z,19.62
2018-06-14T09:18:59.255Z,19.86
2018-06-14T09:20:03.881Z,19.93
2018-06-14T09:21:08.826Z,19.79
2018-06-14T09:22:13.771Z,19.74
2018-06-14T09:23:18.729Z,19.77
2018-06-14T09:24:23.679Z,19.72
2018-06-14T09:25:28.625Z,19.62
2018-06-14T09:26:33.583Z,19.21
2018-06-14T09:27:38.599Z,19.14
2018-06-14T09:28:43.514Z,19.21
2018-06-14T09:29:48.491Z,19.50
2018-06-14T09:30:53.408Z,19.36
2018-06-14T09:31:58.106Z,19.69
2018-06-14T09:33:03.055Z,19.75
2018-06-14T09:34:08.006Z,19.41
2018-06-14T09:35:12.948Z,19.60
2018-06-14T09:36:17.536Z,20.00
2018-06-14T09:37:22.439Z,19.95
2018-06-14T09:38:27.407Z,19.65
2018-06-14T09:39:32.364Z,19.76
2018-06-14T09:40:37.319Z,20.10
2018-06-14T09:41:42.479Z,20.36
2018-06-14T09:42:47.533Z,20.41
2018-06-14T09:43:53.415Z,20.55
2018-06-14T09:44:58.734Z,20.46
2018-06-14T09:46:03.303Z,20.34
2018-06-14T09:47:08.351Z,20.07
2018-06-14T09:48:12.890Z,19.64
2018-06-14T09:49:17.824Z,19.62
2018-06-14T09:50:22.791Z,19.49
2018-06-14T09:51:28.369Z,19.42
2018-06-14T09:52:33.297Z,19.54
2018-06-14T09:53:37.356Z,19.48
2018-06-14T09:54:42.316Z,19.62
2018-06-14T09:55:47.256Z,19.46
2018-06-14T09:56:52.189Z,19.33
2018-06-14T09:57:57.102Z,19.40
2018-06-14T09:59:01.735Z,19.81
2018-06-14T10:00:06.434Z,20.05
2018-06-14T10:01:11.076Z,19.93
2018-06-14T10:02:15.983Z,19.92
2018-06-14T10:03:20.959Z,20.04
2018-06-14T10:04:25.865Z,19.96
2018-06-14T10:05:30.801Z,20.21
2018-06-14T10:06:35.723Z,20.42
2018-06-14T10:07:40.748Z,20.60
2018-06-14T10:08:45.653Z,20.81
2018-06-14T10:09:50.580Z,20.94
2018-06-14T10:10:55.552Z,21.01
2018-06-14T10:12:00.455Z,21.07
2018-06-14T10:13:05.038Z,20.99
2018-06-14T10:14:09.709Z,21.12
2018-06-14T10:15:14.830Z,21.37
2018-06-14T10:16:24.868Z,21.63
2018-06-14T10:17:29.827Z,21.59
2018-06-14T10:18:34.464Z,21.46
2018-06-14T10:19:39.414Z,21.49
2018-06-14T10:20:44.389Z,21.57
2018-06-14T10:21:49.360Z,21.30
2018-06-14T10:22:54.495Z,21.27
2018-06-14T10:23:59.112Z,21.01
2018-06-14T10:25:03.698Z,20.85
2018-06-14T10:26:08.623Z,20.92
2018-06-14T10:27:13.672Z,20.82
2018-06-14T10:28:18.574Z,20.95
2018-06-14T10:29:23.546Z,20.83
2018-06-14T10:30:28.710Z,20.62
2018-06-14T10:31:33.628Z,20.18
2018-06-14T10:32:38.611Z,20.43
2018-06-14T10:33:43.632Z,20.55
2018-06-14T10:34:48.647Z,20.70
2018-06-14T10:35:54.357Z,20.89
2018-06-14T10:37:00.168Z,21.11
2018-06-14T10:38:05.083Z,21.12
2018-06-14T10:39:09.994Z,20.79
2018-06-14T10:40:14.943Z,20.83
2018-06-14T10:41:19.915Z,21.04
2018-06-14T10:42:24.846Z,21.17
2018-06-14T10:43:29.875Z,21.25
2018-06-14T10:44:34.988Z,21.20
2018-06-14T10:45:39.910Z,21.25
2018-06-14T10:46:44.819Z,21.30
2018-06-14T10:47:50.473Z,21.23
2018-06-14T10:48:55.382Z,21.17
2018-06-14T10:50:00.340Z,21.20
2018-06-14T10:51:05.276Z,21.18
2018-06-14T10:52:10.196Z,20.85
2018-06-14T10:53:15.130Z,20.53
2018-06-14T10:54:20.038Z,20.75
2018-06-14T10:55:25.012Z,20.95
2018-06-14T10:56:29.994Z,21.09
2018-06-14T10:57:35.026Z,21.08
2018-06-14T10:58:39.972Z,20.94
2018-06-14T10:59:44.891Z,20.73
2018-06-14T11:00:49.643Z,20.39
2018-06-14T11:01:55.142Z,20.61
2018-06-14T11:03:00.641Z,20.90
2018-06-14T11:04:05.612Z,21.02
2018-06-14T11:05:10.533Z,21.22
2018-06-14T11:06:15.506Z,21.49
2018-06-14T11:07:20.450Z,21.63
2018-06-14T11:08:25.361Z,21.40
2018-06-14T11:09:30.291Z,21.35
2018-06-14T11:10:35.243Z,21.47
2018-06-14T11:11:39.943Z,21.63
2018-06-14T11:12:44.900Z,21.56
2018-06-14T11:13:49.789Z,21.51
2018-06-14T11:14:54.724Z,21.07
2018-06-14T11:15:59.280Z,21.24
2018-06-14T11:17:04.166Z,21.41
2018-06-14T11:18:09.103Z,21.61
2018-06-14T11:19:14.055Z,21.78
2018-06-14T11:20:18.701Z,21.92
2018-06-14T11:21:23.951Z,21.99
2018-06-14T11:22:28.879Z,22.15
2018-06-14T11:23:34.059Z,21.99
2018-06-14T11:24:39.032Z,21.77
2018-06-14T11:25:43.994Z,22.10
2018-06-14T11:26:49.144Z,22.15
2018-06-14T11:27:54.727Z,21.87
2018-06-14T11:29:00.595Z,21.53
2018-06-14T11:30:05.166Z,21.69
2018-06-14T11:31:10.363Z,21.73
2018-06-14T11:32:15.326Z,21.92
2018-06-14T11:33:19.952Z,22.06
2018-06-14T11:34:24.894Z,22.18
2018-06-14T11:35:29.800Z,22.18
2018-06-14T11:36:34.758Z,21.96
2018-06-14T11:37:39.711Z,22.02
2018-06-14T11:38:44.651Z,21.58
2018-06-14T11:39:49.598Z,21.98
2018-06-14T11:40:54.538Z,22.08
2018-06-14T11:41:59.491Z,21.94
2018-06-14T11:43:04.530Z,22.13
2018-06-14T11:44:09.452Z,22.23
2018-06-14T11:45:14.131Z,22.48
2018-06-14T11:46:19.080Z,22.06
2018-06-14T11:47:23.788Z,22.24
2018-06-14T11:48:28.719Z,21.97
2018-06-14T11:49:34.151Z,22.09
2018-06-14T11:50:39.067Z,22.45
2018-06-14T11:51:44.040Z,22.50
2018-06-14T11:52:48.979Z,22.49
2018-06-14T11:53:54.269Z,22.37
2018-06-14T11:55:00.169Z,22.30
2018-06-14T11:56:05.136Z,22.58
2018-06-14T11:57:10.061Z,22.59
2018-06-14T11:58:15.018Z,22.18
2018-06-14T11:59:19.704Z,22.20
2018-06-14T12:00:24.668Z,22.43
2018-06-14T12:01:29.676Z,22.62
2018-06-14T12:02:34.875Z,22.70
2018-06-14T12:03:39.819Z,22.71
2018-06-14T12:04:44.821Z,22.26
2018-06-14T12:05:49.490Z,22.32
2018-06-14T12:06:54.454Z,22.37
2018-06-14T12:07:59.415Z,22.16
2018-06-14T12:09:03.767Z,22.22
2018-06-14T12:10:08.711Z,22.31
2018-06-14T12:11:13.650Z,22.44
2018-06-14T12:12:18.624Z,22.64
2018-06-14T12:13:23.599Z,22.66
2018-06-14T12:14:28.522Z,22.57
2018-06-14T12:15:33.477Z,22.54
2018-06-14T12:16:38.693Z,21.98
2018-06-14T12:17:43.663Z,22.01
2018-06-14T12:18:48.627Z,22.01
2018-06-14T12:19:54.068Z,22.06
2018-06-14T12:20:59.920Z,22.31
2018-06-14T12:22:04.920Z,22.26
2018-06-14T12:23:09.856Z,22.25
2018-06-14T12:24:14.777Z,21.88
2018-06-14T12:25:19.691Z,22.10
2018-06-14T12:26:24.682Z,22.34
2018-06-14T12:27:29.646Z,22.67
2018-06-14T12:28:35.234Z,22.74
2018-06-14T12:29:40.159Z,22.65
2018-06-14T12:30:45.119Z,22.53
2018-06-14T12:31:50.075Z,22.79
2018-06-14T12:32:55.041Z,22.76
2018-06-14T12:34:00.008Z,23.00
2018-06-14T12:35:04.956Z,23.29
2018-06-14T12:36:09.925Z,23.10
2018-06-14T12:37:14.611Z,23.23
2018-06-14T12:38:19.557Z,23.50
2018-06-14T12:39:24.507Z,23.14
2018-06-14T12:40:29.218Z,22.38
2018-06-14T12:41:34.143Z,22.33
2018-06-14T12:42:39.140Z,22.87
2018-06-14T12:43:44.121Z,23.01
2018-06-14T12:44:49.100Z,22.60
2018-06-14T12:45:54.010Z,21.76
2018-06-14T12:46:58.971Z,22.14
2018-06-14T12:48:03.932Z,22.67
2018-06-14T12:49:08.873Z,22.80
2018-06-14T12:50:13.799Z,22.76
2018-06-14T12:51:18.723Z,22.83
2018-06-14T12:52:23.771Z,22.89
2018-06-14T12:53:28.934Z,23.09
2018-06-14T12:54:33.825Z,23.18
2018-06-14T12:55:38.718Z,22.82
2018-06-14T12:56:43.401Z,22.99
2018-06-14T12:57:48.340Z,23.28
2018-06-14T12:58:53.265Z,23.30
2018-06-14T12:59:58.228Z,23.40
2018-06-14T13:01:03.153Z,23.54
2018-06-14T13:02:08.121Z,23.64
2018-06-14T13:03:13.192Z,23.60
2018-06-14T13:04:18.204Z,23.61
2018-06-14T13:05:23.174Z,23.61
2018-06-14T13:06:28.546Z,23.59
2018-06-14T13:07:33.843Z,23.30
2018-06-14T13:08:38.847Z,23.42
2018-06-14T13:09:43.838Z,23.29
2018-06-14T13:10:48.809Z,23.71
2018-06-14T13:11:54.027Z,23.83
2018-06-14T13:12:59.014Z,23.60
2018-06-14T13:14:06.438Z,23.69
2018-06-14T13:15:11.841Z,23.87
2018-06-14T13:16:17.103Z,23.73
2018-06-14T13:17:22.073Z,23.71
2018-06-14T13:18:27.191Z,23.83
2018-06-14T13:19:31.831Z,23.89
2018-06-14T13:20:36.767Z,23.84
2018-06-14T13:21:41.749Z,23.82
2018-06-14T13:22:46.730Z,24.09
2018-06-14T13:23:51.718Z,23.94
2018-06-14T13:24:56.447Z,23.84
2018-06-14T13:26:01.402Z,23.99
2018-06-14T13:27:06.376Z,24.19
2018-06-14T13:28:11.392Z,23.79
2018-06-14T13:29:16.363Z,23.62
2018-06-14T13:30:21.315Z,23.86
2018-06-14T13:31:26.255Z,24.03
2018-06-14T13:32:31.225Z,23.70
2018-06-14T13:33:37.118Z,23.52
2018-06-14T13:34:42.060Z,23.68
2018-06-14T13:35:47.027Z,23.81
2018-06-14T13:36:51.971Z,23.44
2018-06-14T13:37:56.911Z,23.34
2018-06-14T13:39:01.848Z,23.31
2018-06-14T13:40:06.153Z,23.70
2018-06-14T13:41:11.120Z,23.58
2018-06-14T13:42:16.075Z,24.03
2018-06-14T13:43:21.019Z,24.06
2018-06-14T13:44:26.012Z,23.77
2018-06-14T13:45:30.954Z,23.97
2018-06-14T13:46:35.673Z,24.13
2018-06-14T13:47:40.399Z,24.37
2018-06-14T13:48:45.445Z,23.86
2018-06-14T13:49:50.553Z,24.05
2018-06-14T13:50:55.539Z,24.31
2018-06-14T13:52:00.448Z,24.37
2018-06-14T13:53:05.447Z,24.26
2018-06-14T13:54:10.428Z,24.29
2018-06-14T13:55:15.367Z,24.36
2018-06-14T13:56:20.312Z,24.35
2018-06-14T13:57:25.305Z,24.62